createdAt,value
2023-02-02T00:00:25.298Z,90.50
2023-02-02T00:02:55.177Z,90.50
2023-02-02T00:05:23.783Z,90.50
2023-02-02T00:07:52.417Z,90.50
2023-02-02T00:10:20.760Z,90.50
2023-02-02T00:12:49.089Z,90.50
2023-02-02T00:15:17.526Z,90.50
2023-02-02T00:17:45.828Z,90.50
2023-02-02T00:20:15.510Z,90.50
2023-02-02T00:22:43.852Z,90.50
2023-02-02T00:25:12.212Z,90.50
2023-02-02T00:27:41.730Z,90.50
2023-02-02T00:30:11.341Z,90.50
2023-02-02T00:32:43.356Z,90.50
2023-02-02T00:35:11.811Z,90.50
2023-02-02T00:37:41.580Z,90.50
2023-02-02T00:40:11.304Z,90.50
2023-02-02T00:42:39.670Z,90.50
2023-02-02T00:45:16.989Z,90.50
2023-02-02T00:47:46.055Z,90.50
2023-02-02T00:50:15.459Z,90.50
2023-02-02T00:52:45.162Z,90.50
2023-02-02T00:55:13.517Z,90.50
2023-02-02T00:57:44.205Z,90.50
2023-02-02T01:00:14.300Z,90.40
2023-02-02T01:02:42.696Z,90.50
2023-02-02T01:05:14.371Z,90.50
2023-02-02T01:11:37.333Z,90.50
2023-02-02T01:14:05.771Z,90.50
2023-02-02T01:16:34.130Z,90.50
2023-02-02T01:19:02.561Z,90.50
2023-02-02T01:21:30.983Z,90.50
2023-02-02T01:23:59.336Z,90.50
2023-02-02T01:26:27.751Z,90.50
2023-02-02T01:28:58.733Z,90.50
2023-02-02T01:31:27.204Z,90.50
2023-02-02T01:33:55.614Z,90.60
2023-02-02T01:36:24.657Z,90.60
2023-02-02T01:38:53.099Z,90.60
2023-02-02T01:41:22.496Z,90.60
2023-02-02T01:43:54.826Z,90.50
2023-02-02T01:46:25.952Z,90.50
2023-02-02T01:49:02.537Z,90.60
2023-02-02T01:51:36.563Z,90.60
2023-02-02T01:54:06.260Z,90.60
2023-02-02T01:56:36.062Z,90.60
2023-02-02T01:59:04.539Z,90.60
2023-02-02T02:01:34.317Z,90.60
2023-02-02T02:04:02.638Z,90.60
2023-02-02T02:06:30.980Z,90.60
2023-02-02T02:09:01.260Z,90.60
2023-02-02T02:11:29.562Z,90.70
2023-02-02T02:14:19.999Z,90.70
2023-02-02T02:16:55.899Z,90.70
2023-02-02T02:20:07.832Z,90.70
2023-02-02T02:23:03.123Z,90.80
2023-02-02T02:25:59.811Z,90.80
2023-02-02T02:29:04.424Z,90.70
2023-02-02T02:32:05.858Z,90.70
2023-02-02T02:34:41.904Z,90.80
2023-02-02T02:37:11.606Z,90.80
2023-02-02T02:39:40.981Z,90.80
2023-02-02T02:42:10.801Z,90.80
2023-02-02T02:44:41.943Z,90.80
2023-02-02T02:47:14.566Z,90.80
2023-02-02T02:49:45.944Z,90.80
2023-02-02T02:52:14.368Z,90.80
2023-02-02T02:54:45.071Z,90.80
2023-02-02T02:57:30.705Z,90.90
2023-02-02T03:00:02.283Z,90.90
2023-02-02T03:02:37.249Z,90.80
2023-02-02T03:05:37.171Z,90.90
2023-02-02T03:08:08.918Z,90.90
2023-02-02T03:10:38.671Z,90.90
2023-02-02T03:13:08.757Z,90.80
2023-02-02T03:15:37.209Z,90.90
2023-02-02T03:18:11.847Z,90.90
2023-02-02T03:20:40.191Z,90.90
2023-02-02T03:23:10.949Z,90.90
2023-02-02T03:25:39.297Z,90.90
2023-02-02T03:28:07.811Z,90.90
2023-02-02T03:30:36.195Z,90.90
2023-02-02T03:33:06.016Z,91.00
2023-02-02T03:35:34.371Z,90.90
2023-02-02T03:38:05.414Z,91.00
2023-02-02T03:40:36.788Z,91.00
2023-02-02T03:43:07.894Z,91.00
2023-02-02T03:45:37.242Z,91.00
2023-02-02T03:48:07.631Z,91.00
2023-02-02T03:50:37.176Z,91.00
2023-02-02T03:53:06.019Z,91.00
2023-02-02T03:55:35.079Z,91.00
2023-02-02T03:58:03.390Z,91.00
2023-02-02T04:00:31.679Z,91.10
2023-02-02T04:03:00.222Z,91.00
2023-02-02T04:05:29.914Z,91.10
2023-02-02T04:07:58.266Z,91.10
2023-02-02T04:10:26.629Z,91.10
2023-02-02T04:12:54.979Z,91.10
2023-02-02T04:15:23.631Z,91.10
2023-02-02T04:17:52.212Z,91.10
2023-02-02T04:20:20.680Z,91.10
2023-02-02T04:22:50.747Z,91.10
2023-02-02T04:25:19.167Z,91.10
2023-02-02T04:27:47.518Z,91.10
2023-02-02T04:30:15.954Z,91.10
2023-02-02T04:32:44.315Z,91.10
2023-02-02T04:35:12.736Z,91.10
2023-02-02T04:37:41.048Z,91.20
2023-02-02T04:40:12.153Z,91.10
2023-02-02T04:42:40.481Z,91.20
2023-02-02T04:45:12.501Z,91.20
2023-02-02T04:47:40.978Z,91.20
2023-02-02T04:50:10.079Z,91.20
2023-02-02T04:52:38.383Z,91.10
2023-02-02T04:55:07.255Z,91.20
2023-02-02T04:57:36.892Z,91.20
2023-02-02T05:00:05.846Z,91.20
2023-02-02T05:02:36.763Z,91.20
2023-02-02T05:05:05.719Z,91.20
2023-02-02T05:07:34.101Z,91.20
2023-02-02T05:10:02.473Z,91.20
2023-02-02T05:12:33.209Z,91.20
2023-02-02T05:15:03.544Z,91.20
2023-02-02T05:17:35.054Z,91.20
2023-02-02T05:20:06.061Z,91.30
2023-02-02T05:22:35.148Z,91.20
2023-02-02T05:25:03.658Z,91.60
2023-02-02T05:27:31.958Z,91.20
2023-02-02T05:30:00.289Z,91.20
2023-02-02T05:32:30.126Z,91.20
2023-02-02T05:34:58.475Z,91.30
2023-02-02T05:37:26.768Z,91.30
2023-02-02T05:39:55.149Z,91.30
2023-02-02T05:42:26.288Z,91.30
2023-02-02T05:44:57.176Z,91.30
2023-02-02T05:47:25.572Z,91.30
2023-02-02T05:49:55.390Z,91.30
2023-02-02T05:52:25.206Z,91.40
2023-02-02T05:54:53.573Z,91.30
2023-02-02T05:57:21.870Z,91.30
2023-02-02T05:59:53.248Z,91.30
2023-02-02T06:02:21.609Z,91.30
2023-02-02T06:04:49.936Z,91.30
2023-02-02T06:07:24.325Z,91.30
2023-02-02T06:09:52.652Z,91.40
2023-02-02T06:12:21.134Z,91.40
2023-02-02T06:14:49.448Z,91.40
2023-02-02T06:17:17.715Z,91.40
2023-02-02T06:19:46.023Z,91.40
2023-02-02T06:22:14.369Z,91.30
2023-02-02T06:24:44.071Z,91.20
2023-02-02T06:27:12.408Z,91.10
2023-02-02T06:29:40.768Z,91.10
2023-02-02T06:32:09.102Z,91.10
2023-02-02T06:34:37.464Z,91.50
2023-02-02T06:37:05.751Z,92.30
2023-02-02T06:39:34.091Z,92.70
2023-02-02T06:42:19.334Z,93.70
2023-02-02T06:44:49.335Z,93.90
2023-02-02T06:47:17.888Z,94.00
2023-02-02T06:49:48.657Z,93.90
2023-02-02T06:52:17.011Z,93.80
2023-02-02T06:54:45.312Z,93.90
2023-02-02T06:57:14.969Z,93.90
2023-02-02T06:59:43.279Z,93.90
2023-02-02T07:02:24.156Z,93.80
2023-02-02T07:04:52.811Z,93.60
2023-02-02T07:07:21.159Z,93.40
2023-02-02T07:09:57.957Z,93.30
2023-02-02T07:12:28.275Z,93.30
2023-02-02T07:14:56.843Z,93.30
2023-02-02T07:17:25.281Z,93.20
2023-02-02T07:19:53.576Z,93.00
2023-02-02T07:22:21.863Z,92.90
2023-02-02T07:24:50.187Z,92.80
2023-02-02T07:27:18.467Z,92.80
2023-02-02T07:29:48.099Z,92.80
2023-02-02T07:32:16.400Z,92.70
2023-02-02T07:34:45.172Z,92.60
2023-02-02T07:37:13.511Z,92.60
2023-02-02T07:39:43.340Z,92.50
2023-02-02T07:42:12.348Z,92.50
2023-02-02T07:44:40.678Z,92.40
2023-02-02T07:47:10.375Z,92.40
2023-02-02T07:49:38.672Z,92.30
2023-02-02T07:52:07.058Z,92.20
2023-02-02T07:54:35.410Z,92.20
2023-02-02T07:57:03.709Z,92.10
2023-02-02T07:59:32.549Z,92.10
2023-02-02T08:02:01.117Z,92.10
2023-02-02T08:04:33.421Z,92.10
2023-02-02T08:07:02.073Z,92.20
2023-02-02T08:09:31.106Z,92.50
2023-02-02T08:12:02.582Z,92.60
2023-02-02T08:14:31.013Z,93.10
2023-02-02T08:16:59.331Z,93.00
2023-02-02T08:19:27.688Z,93.10
2023-02-02T08:21:57.391Z,93.00
2023-02-02T08:24:25.762Z,93.30
2023-02-02T08:26:54.176Z,92.90
2023-02-02T08:29:22.563Z,92.80
2023-02-02T08:31:50.957Z,92.70
2023-02-02T08:34:21.788Z,92.60
2023-02-02T08:36:50.091Z,92.60
2023-02-02T08:39:19.756Z,92.50
2023-02-02T08:41:50.030Z,92.60
2023-02-02T08:44:18.400Z,92.60
2023-02-02T08:46:48.171Z,92.50
2023-02-02T08:49:16.741Z,92.40
2023-02-02T08:51:45.075Z,92.30
2023-02-02T08:54:13.522Z,92.20
2023-02-02T08:56:43.244Z,92.10
2023-02-02T08:59:11.607Z,92.00
2023-02-02T09:01:42.395Z,91.90
2023-02-02T09:04:15.721Z,92.10
2023-02-02T09:06:44.172Z,92.00
2023-02-02T09:09:13.714Z,91.90
2023-02-02T09:11:46.162Z,91.70
2023-02-02T09:14:14.888Z,91.70
2023-02-02T09:16:43.286Z,91.60
2023-02-02T09:19:14.500Z,91.40
2023-02-02T09:21:42.788Z,91.30
2023-02-02T09:24:11.900Z,91.20
2023-02-02T09:26:40.483Z,91.10
2023-02-02T09:29:17.590Z,91.00
2023-02-02T09:31:46.995Z,90.90
2023-02-02T09:34:15.959Z,90.70
2023-02-02T09:36:44.454Z,90.50
2023-02-02T09:39:14.886Z,90.60
2023-02-02T09:42:05.626Z,90.80
2023-02-02T09:44:58.892Z,90.80
2023-02-02T09:47:36.270Z,90.70
2023-02-02T09:50:07.079Z,90.70
2023-02-02T09:52:38.946Z,90.60
2023-02-02T09:55:14.764Z,90.70
2023-02-02T09:57:44.850Z,90.70
2023-02-02T10:00:24.536Z,90.60
2023-02-02T10:02:52.840Z,90.60
2023-02-02T10:05:22.608Z,90.50
2023-02-02T10:07:54.324Z,90.30
2023-02-02T10:10:25.844Z,90.40
2023-02-02T10:12:55.599Z,90.20
2023-02-02T10:15:32.510Z,90.20
2023-02-02T10:18:05.826Z,90.20
2023-02-02T10:20:38.322Z,90.30
2023-02-02T10:23:13.045Z,90.30
2023-02-02T10:25:41.587Z,90.20
2023-02-02T10:28:15.164Z,90.30
2023-02-02T10:30:46.402Z,90.40
2023-02-02T10:33:20.454Z,90.50
2023-02-02T10:35:51.336Z,90.50
2023-02-02T10:38:24.866Z,90.50
2023-02-02T10:41:00.296Z,90.50
2023-02-02T10:43:47.804Z,90.50
2023-02-02T10:46:20.252Z,90.60
2023-02-02T10:48:49.240Z,90.50
2023-02-02T10:51:21.429Z,90.50
2023-02-02T10:53:52.296Z,90.40
2023-02-02T10:56:22.032Z,90.40
2023-02-02T10:58:53.343Z,90.40
2023-02-02T11:01:23.409Z,90.40
2023-02-02T11:04:12.064Z,90.40
2023-02-02T11:06:49.745Z,90.60
2023-02-02T11:09:22.275Z,90.60
2023-02-02T11:11:55.468Z,90.50
2023-02-02T11:14:33.668Z,90.20
2023-02-02T11:17:05.788Z,90.00
2023-02-02T11:19:39.539Z,89.80
2023-02-02T11:22:11.343Z,89.60
2023-02-02T11:24:41.995Z,89.80
2023-02-02T11:27:18.353Z,89.90
2023-02-02T11:29:47.699Z,90.00
2023-02-02T11:32:21.789Z,90.00
2023-02-02T11:34:50.096Z,90.10
2023-02-02T11:37:25.549Z,90.10
2023-02-02T11:39:54.063Z,90.10
2023-02-02T11:42:23.304Z,90.20
2023-02-02T11:44:52.368Z,90.30
2023-02-02T11:47:25.601Z,90.20
2023-02-02T11:49:54.718Z,90.20
2023-02-02T11:52:27.183Z,90.20
2023-02-02T11:55:01.163Z,90.30
2023-02-02T11:57:30.585Z,90.30
2023-02-02T12:00:08.409Z,90.30
2023-02-02T12:02:38.153Z,90.30
2023-02-02T12:05:31.559Z,90.20
2023-02-02T12:07:59.929Z,90.30
2023-02-02T12:10:34.505Z,90.30
2023-02-02T12:13:08.350Z,90.30
2023-02-02T12:15:41.531Z,90.30
2023-02-02T12:18:22.161Z,90.30
2023-02-02T12:20:51.596Z,90.30
2023-02-02T12:23:38.155Z,90.40
2023-02-02T12:26:22.714Z,90.40
2023-02-02T12:29:09.207Z,90.50
2023-02-02T12:31:42.503Z,90.50
2023-02-02T12:34:15.547Z,90.40
2023-02-02T12:36:50.172Z,90.50
2023-02-02T12:39:35.578Z,90.50
2023-02-02T12:42:35.774Z,90.50
2023-02-02T12:45:22.689Z,90.60
2023-02-02T12:47:54.895Z,90.60
2023-02-02T12:50:30.934Z,90.60
2023-02-02T12:53:09.237Z,90.70
2023-02-02T12:55:43.270Z,90.70
2023-02-02T12:58:17.081Z,90.70
2023-02-02T13:01:08.594Z,90.80
2023-02-02T13:03:41.042Z,90.90
2023-02-02T13:06:31.758Z,90.90
2023-02-02T13:09:01.865Z,90.80
2023-02-02T13:11:36.428Z,90.80
2023-02-02T13:14:09.307Z,90.90
2023-02-02T13:16:42.488Z,90.80
2023-02-02T13:19:15.251Z,90.80
2023-02-02T13:21:45.562Z,91.20
2023-02-02T13:24:16.506Z,90.80
2023-02-02T13:26:45.469Z,90.80
2023-02-02T13:29:20.687Z,90.80
2023-02-02T13:31:51.390Z,90.80
2023-02-02T13:34:22.170Z,90.90
2023-02-02T13:36:54.534Z,90.80
2023-02-02T13:39:24.891Z,90.80
2023-02-02T13:41:56.061Z,90.80
2023-02-02T13:44:26.713Z,90.80
2023-02-02T13:46:57.578Z,90.80
2023-02-02T13:49:27.645Z,90.80
2023-02-02T13:52:14.464Z,90.80
2023-02-02T13:55:16.823Z,91.30
2023-02-02T13:58:06.448Z,91.60
2023-02-02T14:00:35.714Z,91.80
2023-02-02T14:03:05.988Z,91.90
2023-02-02T14:05:35.765Z,92.00
2023-02-02T14:08:08.982Z,92.00
2023-02-02T14:10:38.428Z,92.10
2023-02-02T14:13:30.542Z,92.10
2023-02-02T14:15:59.258Z,92.30
2023-02-02T14:18:53.281Z,92.30
2023-02-02T14:21:58.794Z,92.40
2023-02-02T14:24:43.366Z,92.40
2023-02-02T14:27:48.925Z,92.40
2023-02-02T14:30:24.003Z,92.50
2023-02-02T14:32:55.019Z,92.60
2023-02-02T14:36:00.767Z,92.80
2023-02-02T14:38:38.678Z,92.80
2023-02-02T14:41:11.770Z,92.90
2023-02-02T14:43:46.083Z,92.90
2023-02-02T14:46:39.659Z,92.90
2023-02-02T14:49:18.528Z,93.00
2023-02-02T14:52:03.000Z,93.10
2023-02-02T14:54:34.168Z,93.00
2023-02-02T14:57:06.047Z,93.10
2023-02-02T14:59:36.115Z,93.10
2023-02-02T15:02:17.062Z,93.20
2023-02-02T15:04:47.800Z,93.20
2023-02-02T15:07:38.694Z,93.20
2023-02-02T15:10:09.318Z,93.30
2023-02-02T15:12:45.442Z,93.30
2023-02-02T15:15:19.546Z,93.30
2023-02-02T15:18:02.127Z,93.40
2023-02-02T15:20:32.321Z,93.40
2023-02-02T15:23:03.642Z,93.40
2023-02-02T15:25:34.928Z,93.50
2023-02-02T15:28:09.529Z,93.50
2023-02-02T15:30:40.044Z,93.60
2023-02-02T15:33:13.576Z,93.60
2023-02-02T15:35:41.881Z,93.60
2023-02-02T15:38:13.937Z,93.60
2023-02-02T15:40:42.279Z,93.60
2023-02-02T15:43:13.761Z,93.70
2023-02-02T15:45:44.445Z,93.70
2023-02-02T15:48:21.476Z,93.70
2023-02-02T15:50:55.530Z,93.80
2023-02-02T15:53:26.483Z,93.50
2023-02-02T15:55:55.019Z,93.30
2023-02-02T15:58:33.327Z,93.10
2023-02-02T16:01:06.554Z,93.10
2023-02-02T16:03:44.509Z,92.90
2023-02-02T16:06:12.829Z,92.80
2023-02-02T16:08:41.320Z,92.60
2023-02-02T16:11:11.484Z,92.70
2023-02-02T16:13:41.948Z,92.60
2023-02-02T16:16:22.831Z,92.60
2023-02-02T16:19:03.395Z,92.60
2023-02-02T16:21:31.937Z,92.40
2023-02-02T16:24:00.260Z,92.30
2023-02-02T16:26:30.075Z,92.20
2023-02-02T16:28:59.775Z,92.20
2023-02-02T16:31:37.429Z,92.10
2023-02-02T16:34:05.814Z,92.10
2023-02-02T16:36:34.122Z,92.00
2023-02-02T16:39:02.569Z,92.00
2023-02-02T16:41:34.586Z,91.90
2023-02-02T16:44:31.930Z,91.90
2023-02-02T16:47:01.991Z,91.90
2023-02-02T16:49:30.428Z,91.90
2023-02-02T16:52:14.120Z,91.90
2023-02-02T16:54:45.365Z,91.90
2023-02-02T16:57:18.359Z,91.90
2023-02-02T16:59:53.601Z,92.00
2023-02-02T17:02:26.038Z,92.10
2023-02-02T17:04:57.011Z,92.20
2023-02-02T17:07:25.313Z,92.30
2023-02-02T17:10:10.455Z,92.40
2023-02-02T17:12:38.816Z,92.50
2023-02-02T17:15:34.857Z,92.50
2023-02-02T17:18:20.912Z,92.50
2023-02-02T17:20:54.673Z,92.50
2023-02-02T17:23:23.524Z,92.40
2023-02-02T17:25:52.266Z,91.90
2023-02-02T17:28:21.672Z,91.80
2023-02-02T17:30:53.113Z,91.90
2023-02-02T17:33:21.536Z,91.90
2023-02-02T17:35:55.858Z,92.00
2023-02-02T17:38:27.702Z,91.90
2023-02-02T17:40:57.716Z,91.90
2023-02-02T17:43:26.957Z,91.90
2023-02-02T17:45:56.720Z,91.90
2023-02-02T17:48:25.089Z,91.90
2023-02-02T17:50:53.380Z,92.00
2023-02-02T17:53:25.039Z,92.00
2023-02-02T17:55:53.388Z,92.00
2023-02-02T17:58:21.689Z,92.00
2023-02-02T18:00:52.305Z,92.10
2023-02-02T18:03:23.344Z,92.10
2023-02-02T18:05:51.739Z,92.10
2023-02-02T18:08:20.064Z,92.10
2023-02-02T18:10:48.639Z,92.10
2023-02-02T18:13:18.999Z,92.40
2023-02-02T18:15:47.610Z,92.20
2023-02-02T18:18:16.032Z,92.20
2023-02-02T18:20:45.786Z,92.20
2023-02-02T18:23:14.325Z,92.20
2023-02-02T18:25:42.810Z,92.20
2023-02-02T18:28:15.211Z,92.20
2023-02-02T18:30:48.047Z,92.20
2023-02-02T18:33:19.531Z,92.30
2023-02-02T18:35:49.360Z,92.30
2023-02-02T18:38:18.057Z,92.20
2023-02-02T18:40:46.420Z,92.30
2023-02-02T18:43:14.725Z,92.30
2023-02-02T18:45:43.061Z,92.30
2023-02-02T18:48:11.363Z,92.60
2023-02-02T18:50:39.703Z,92.30
2023-02-02T18:53:09.440Z,92.30
2023-02-02T18:55:38.575Z,92.20
2023-02-02T18:58:10.499Z,92.20
2023-02-02T19:00:38.977Z,92.20
2023-02-02T19:03:07.269Z,92.20
2023-02-02T19:05:54.316Z,92.20
2023-02-02T19:08:24.184Z,92.10
2023-02-02T19:10:56.293Z,92.10
2023-02-02T19:13:24.590Z,92.20
2023-02-02T19:15:52.953Z,92.20
2023-02-02T19:18:21.951Z,92.20
2023-02-02T19:20:54.090Z,92.10
2023-02-02T19:23:24.572Z,92.10
2023-02-02T19:25:56.906Z,92.10
2023-02-02T19:28:28.251Z,92.00
2023-02-02T19:30:57.680Z,92.10
2023-02-02T19:33:36.654Z,92.00
2023-02-02T19:36:09.175Z,92.00
2023-02-02T19:38:38.846Z,92.10
2023-02-02T19:41:14.618Z,92.00
2023-02-02T19:43:47.479Z,92.00
2023-02-02T19:46:17.031Z,92.10
2023-02-02T19:48:45.535Z,92.10
2023-02-02T19:51:38.720Z,92.00
2023-02-02T19:54:30.401Z,92.00
2023-02-02T19:57:00.689Z,92.00
2023-02-02T19:59:33.594Z,92.10
2023-02-02T20:02:15.281Z,92.00
2023-02-02T20:04:43.597Z,92.00
2023-02-02T20:07:12.358Z,92.00
2023-02-02T20:09:43.737Z,92.00
2023-02-02T20:12:19.239Z,92.10
2023-02-02T20:14:47.544Z,92.00
2023-02-02T20:17:21.467Z,92.10
2023-02-02T20:19:49.779Z,92.10
2023-02-02T20:22:26.880Z,92.00
2023-02-02T20:24:59.491Z,92.00
2023-02-02T20:27:31.059Z,92.00
2023-02-02T20:30:02.508Z,92.00
2023-02-02T20:32:37.763Z,92.00
2023-02-02T20:35:16.250Z,92.00
2023-02-02T20:37:45.199Z,92.00
2023-02-02T20:40:24.494Z,92.00
2023-02-02T20:42:53.155Z,92.00
2023-02-02T20:45:22.623Z,92.00
2023-02-02T20:47:51.395Z,92.00
2023-02-02T20:50:21.038Z,92.00
2023-02-02T20:52:49.476Z,92.00
2023-02-02T20:55:18.012Z,92.00
2023-02-02T20:57:48.045Z,92.00
2023-02-02T21:00:17.812Z,92.00
2023-02-02T21:02:46.213Z,92.00
2023-02-02T21:05:14.755Z,92.00
2023-02-02T21:07:43.249Z,92.00
2023-02-02T21:10:12.120Z,92.00
2023-02-02T21:12:40.549Z,91.90
2023-02-02T21:15:11.583Z,92.00
2023-02-02T21:17:40.579Z,92.00
2023-02-02T21:20:10.677Z,92.00
2023-02-02T21:22:39.156Z,92.00
2023-02-02T21:25:08.304Z,92.00
2023-02-02T21:27:37.672Z,92.00
2023-02-02T21:30:07.012Z,92.00
2023-02-02T21:32:36.791Z,91.90
2023-02-02T21:35:06.296Z,91.90
2023-02-02T21:37:35.746Z,91.90
2023-02-02T21:40:05.052Z,91.90
2023-02-02T21:42:33.476Z,91.90
2023-02-02T21:45:25.187Z,91.90
2023-02-02T21:47:55.618Z,91.90
2023-02-02T21:50:27.154Z,91.90
2023-02-02T21:52:59.410Z,92.00
2023-02-02T21:55:34.296Z,92.00
2023-02-02T21:58:09.100Z,92.00
2023-02-02T22:00:37.609Z,92.00
2023-02-02T22:03:29.749Z,92.00
2023-02-02T22:06:03.327Z,92.00
2023-02-02T22:08:31.804Z,92.00
2023-02-02T22:11:00.323Z,91.90
2023-02-02T22:13:33.929Z,91.90
2023-02-02T22:16:03.293Z,91.90
2023-02-02T22:18:33.174Z,91.90
2023-02-02T22:21:01.609Z,91.90
2023-02-02T22:23:30.165Z,91.90
2023-02-02T22:25:59.329Z,91.90
2023-02-02T22:28:28.914Z,91.90
2023-02-02T22:30:58.532Z,91.90
2023-02-02T22:33:27.284Z,92.10
2023-02-02T22:35:57.111Z,92.20
2023-02-02T22:38:25.950Z,92.30
2023-02-02T22:40:54.510Z,92.30
2023-02-02T22:43:23.002Z,92.40
2023-02-02T22:45:51.448Z,92.50
2023-02-02T22:48:19.930Z,92.80
2023-02-02T22:50:48.544Z,92.30
2023-02-02T22:53:18.328Z,92.30
2023-02-02T22:55:46.735Z,92.40
2023-02-02T22:58:15.269Z,92.10
2023-02-02T23:00:43.710Z,91.70
2023-02-02T23:03:12.129Z,91.50
2023-02-02T23:05:40.608Z,91.70
2023-02-02T23:08:09.172Z,91.80
2023-02-02T23:10:38.946Z,91.80
2023-02-02T23:13:07.420Z,91.90
2023-02-02T23:15:35.996Z,91.90
2023-02-02T23:18:04.824Z,91.90
2023-02-02T23:20:33.244Z,92.00
2023-02-02T23:23:01.679Z,92.00
2023-02-02T23:25:30.100Z,92.00
2023-02-02T23:28:00.013Z,92.00
2023-02-02T23:30:28.849Z,92.10
2023-02-02T23:32:57.424Z,92.10
2023-02-02T23:35:26.133Z,92.10
2023-02-02T23:37:54.566Z,92.10
2023-02-02T23:40:23.019Z,92.10
2023-02-02T23:42:51.473Z,92.10
2023-02-02T23:45:21.277Z,92.10
2023-02-02T23:47:49.700Z,92.00
2023-02-02T23:50:18.253Z,92.00
2023-02-02T23:52:46.781Z,92.00
2023-02-02T23:55:15.282Z,92.00
2023-02-02T23:57:43.781Z,92.10
